NATIONAL KEY DEER NWR FL US current weather conditions

sailwx.info

Wind from 079 at 10 knots gusting 18

Air temperature 23.3° C
Dewpoint 18.2° C

Last reported at 2017-Mar-25 00:38 UTC.
Time now 2017-Mar-25 02:02 UTC

Location: N 24°43' W 081°23'.
View on Google Maps.

See reports from other nearby stations

  
Tides and Currents Weather Stations Pressure Air Temp Water Temp Dewpoint Dewpoint Depression Visibility Wind Speed Wind Dir Waves Ship Positions
date/time (UTC)wind fromknots sea level pressurealtimeterstation pressurevisibilityair tempwater tempwave heightnotes
2017-Mar-25 00:38 079 10 gusting 18 23.3
2017-Mar-24 23:38 066 8 gusting 19 23.3
2017-Mar-24 22:38 071 11 gusting 19 23.9
2017-Mar-24 21:38 074 11 gusting 22 25.0
2017-Mar-24 20:38 074 10 gusting 18 26.1
2017-Mar-24 19:38 068 8 gusting 19 24.4
2017-Mar-24 18:38 076 11 gusting 19 26.1
2017-Mar-24 17:38 075 10 gusting 22 26.1
2017-Mar-24 16:38 076 12 gusting 21 25.6
2017-Mar-24 15:38 077 11 gusting 23 25.6
2017-Mar-24 14:38 075 11 gusting 20 25.6
2017-Mar-24 13:38 067 8 gusting 16 24.4
2017-Mar-24 12:38 080 6 gusting 13 23.3
2017-Mar-24 11:38 078 6 gusting 14 21.7
2017-Mar-24 10:38 079 8 gusting 17 21.7
2017-Mar-24 09:38 075 7 gusting 14 22.2
2017-Mar-24 08:38 077 9 gusting 18 22.2
2017-Mar-24 07:38 068 8 gusting 17 21.7
2017-Mar-24 06:38 064 9 gusting 18 21.7
2017-Mar-24 05:38 061 10 gusting 19 21.7
2017-Mar-24 04:38 048 8 gusting 14 22.2
2017-Mar-24 03:38 066 9 gusting 16 22.2
2017-Mar-24 02:38 069 6 gusting 15 21.7
2017-Mar-24 01:38 073 8 gusting 17 21.7
2017-Mar-24 00:38 087 6 gusting 23 20.6
2017-Mar-23 23:38 059 12 gusting 29 19.4
2017-Mar-23 22:38 087 3 gusting 8 26.1
2017-Mar-23 21:38 087 3 gusting 10 27.8
2017-Mar-23 20:38 092 5 gusting 12 27.8
2017-Mar-23 19:38 081 4 gusting 8 28.3
2017-Mar-23 18:38 043 5 gusting 8 26.1
2017-Mar-23 17:38 037 5 gusting 10 26.1
2017-Mar-23 16:38 030 4 gusting 8 26.1
2017-Mar-23 15:38 015 4 gusting 9 25.6
2017-Mar-23 14:38 009 5 gusting 10 24.4
2017-Mar-23 13:38 012 4 gusting 9 23.3
2017-Mar-23 12:38 010 4 gusting 9 21.7
2017-Mar-23 11:38 005 4 gusting 7 20.0
2017-Mar-23 10:38 011 3 gusting 7 20.0
2017-Mar-23 09:38 002 3 gusting 7 20.0
2017-Mar-23 08:38 355 3 gusting 6 18.9
2017-Mar-23 07:38 357 1 gusting 3 17.2
2017-Mar-23 06:38 354 1 gusting 3 17.2
2017-Mar-23 05:38 348 2 gusting 3 17.2
2017-Mar-23 04:38 15.0
2017-Mar-23 03:38 16.7
2017-Mar-23 02:38 17.2